createdAt,value
2022-12-05T07:00:39.893Z,101295.02
2022-12-05T07:03:10.417Z,101299.66
2022-12-05T07:05:38.655Z,101300.74
2022-12-05T07:08:06.361Z,101301.52
2022-12-05T07:10:34.157Z,101296.56
2022-12-05T07:13:01.855Z,101295.73
2022-12-05T07:15:29.615Z,101294.52
2022-12-05T07:17:57.287Z,101294.60
2022-12-05T07:20:27.909Z,101295.73
2022-12-05T07:23:01.674Z,101285.20
2022-12-05T07:25:29.338Z,101283.59
2022-12-05T07:27:57.065Z,101277.00
2022-12-05T07:30:24.799Z,101273.67
2022-12-05T07:32:52.500Z,101269.41
2022-12-05T07:35:20.185Z,101264.09
2022-12-05T07:37:47.836Z,101267.46
2022-12-05T07:40:15.672Z,101267.15
2022-12-05T07:42:43.364Z,101264.77
2022-12-05T07:45:11.228Z,101257.97
2022-12-05T07:47:38.944Z,101257.41
2022-12-05T07:50:07.195Z,101254.21
2022-12-05T07:52:34.840Z,101255.31
2022-12-05T07:55:02.541Z,101251.05
2022-12-05T07:57:31.016Z,101253.14
2022-12-05T07:59:59.231Z,101252.54
2022-12-05T08:02:27.267Z,101255.98
2022-12-05T08:04:55.020Z,101261.02
2022-12-05T08:07:22.760Z,101266.15
2022-12-05T08:09:50.449Z,101265.65
2022-12-05T08:12:18.213Z,101264.38
2022-12-05T08:14:46.054Z,101258.75
2022-12-05T08:17:13.902Z,101261.02
2022-12-05T08:19:41.682Z,101265.41
2022-12-05T08:22:09.873Z,101269.36
2022-12-05T08:24:37.688Z,101273.16
2022-12-05T08:27:06.027Z,101271.84
2022-12-05T08:29:33.961Z,101272.02
2022-12-05T08:32:01.727Z,101274.98
2022-12-05T08:34:29.678Z,101271.29
2022-12-05T08:36:57.412Z,101273.30
2022-12-05T08:39:26.550Z,101273.27
2022-12-05T08:41:54.242Z,101265.56
2022-12-05T08:44:22.031Z,101264.17
2022-12-05T08:46:50.768Z,101262.58
2022-12-05T08:49:19.297Z,101258.23
2022-12-05T08:51:47.325Z,101260.71
2022-12-05T08:54:16.022Z,101259.45
2022-12-05T08:56:43.738Z,101253.59
2022-12-05T08:59:11.849Z,101246.29
2022-12-05T09:01:40.967Z,101240.13
2022-12-05T09:04:09.176Z,101233.10
2022-12-05T09:06:39.439Z,101225.41
2022-12-05T09:09:09.234Z,101229.41
2022-12-05T09:11:46.407Z,101234.15
2022-12-05T09:14:15.733Z,101236.61
2022-12-05T09:16:45.420Z,101236.08
2022-12-05T09:19:25.789Z,101228.55
2022-12-05T09:21:54.275Z,101230.48
2022-12-05T09:24:22.114Z,101231.33
2022-12-05T09:26:50.425Z,101229.42
2022-12-05T09:29:18.498Z,101225.83
2022-12-05T09:31:48.710Z,101224.02
2022-12-05T09:34:18.367Z,101226.59
2022-12-05T09:36:55.583Z,101216.67
2022-12-05T09:39:26.321Z,101213.42
2022-12-05T09:42:27.877Z,101216.49
2022-12-05T09:45:30.469Z,101220.09
2022-12-05T09:48:13.832Z,101211.98
2022-12-05T09:51:00.413Z,101208.84
2022-12-05T09:53:32.514Z,101209.30
2022-12-05T09:56:20.776Z,101211.41
2022-12-05T09:58:56.887Z,101213.16
2022-12-05T10:01:42.042Z,101207.88
2022-12-05T10:04:29.218Z,101205.84
2022-12-05T10:07:28.501Z,101205.86
2022-12-05T10:10:24.877Z,101203.85
2022-12-05T10:13:07.968Z,101200.98
2022-12-05T10:15:45.486Z,101193.71
2022-12-05T10:18:16.486Z,101192.44
2022-12-05T10:20:51.062Z,101191.40
2022-12-05T10:23:55.429Z,101187.65
2022-12-05T10:26:15.717Z,101185.36
2022-12-05T10:28:52.644Z,101186.34
2022-12-05T10:31:26.297Z,101185.30
2022-12-05T10:34:03.645Z,101183.83
2022-12-05T10:36:31.982Z,101178.55
2022-12-05T10:38:59.875Z,101178.49
2022-12-05T10:41:29.007Z,101171.44
2022-12-05T10:43:58.976Z,101168.09
2022-12-05T10:46:27.333Z,101163.81
2022-12-05T10:48:55.137Z,101166.45
2022-12-05T10:51:31.333Z,101165.08
2022-12-05T10:54:16.333Z,101159.23
2022-12-05T10:56:46.781Z,101160.29
2022-12-05T10:59:20.233Z,101158.29
2022-12-05T11:02:00.503Z,101156.40
2022-12-05T11:04:31.680Z,101160.95
2022-12-05T11:07:03.853Z,101156.99
2022-12-05T11:09:35.601Z,101154.70
2022-12-05T11:12:09.407Z,101150.82
2022-12-05T11:14:37.272Z,101150.73
2022-12-05T11:17:06.811Z,101144.64
2022-12-05T11:19:38.433Z,101142.42
2022-12-05T11:22:09.467Z,101140.59
2022-12-05T11:24:39.044Z,101143.59
2022-12-05T11:27:16.066Z,101142.86
2022-12-05T11:29:53.650Z,101148.31
2022-12-05T11:32:33.421Z,101148.99
2022-12-05T11:35:26.137Z,101149.56
2022-12-05T11:38:02.074Z,101149.48
2022-12-05T11:40:54.742Z,101144.50
2022-12-05T11:43:48.075Z,101143.83
2022-12-05T11:46:37.884Z,101134.17
2022-12-05T11:49:31.648Z,101132.24
2022-12-05T11:52:24.010Z,101127.98
2022-12-05T11:55:05.698Z,101128.95
2022-12-05T11:57:52.828Z,101126.40
2022-12-05T12:00:58.660Z,101124.50
2022-12-05T12:04:06.185Z,101117.42
2022-12-05T12:06:40.782Z,101112.04
2022-12-05T12:09:27.524Z,101104.46
2022-12-05T12:12:00.999Z,101104.28
2022-12-05T12:14:58.548Z,101096.86
2022-12-05T12:17:43.722Z,101096.77
2022-12-05T12:20:40.970Z,101096.83
2022-12-05T12:23:39.455Z,101095.27
2022-12-05T12:26:20.786Z,101092.58
2022-12-05T12:29:16.544Z,101093.09
2022-12-05T12:32:11.548Z,101094.59
2022-12-05T12:35:21.902Z,101088.42
2022-12-05T12:38:08.214Z,101087.42
2022-12-05T12:40:48.786Z,101089.19
2022-12-05T12:43:58.646Z,101083.94
2022-12-05T12:46:52.199Z,101081.73
2022-12-05T12:49:31.806Z,101080.65
2022-12-05T12:52:04.527Z,101082.41
2022-12-05T12:55:05.005Z,101078.30
2022-12-05T12:57:58.054Z,101069.16
2022-12-05T13:00:34.798Z,101064.86
2022-12-05T13:03:17.384Z,101064.09
2022-12-05T13:06:12.147Z,101063.73
2022-12-05T13:08:56.236Z,101063.64
2022-12-05T13:11:24.099Z,101062.69
2022-12-05T13:13:59.127Z,101062.02
2022-12-05T13:16:32.746Z,101064.12
2022-12-05T13:19:02.231Z,101066.05
2022-12-05T13:21:30.703Z,101066.61
2022-12-05T13:24:03.897Z,101065.04
2022-12-05T13:26:34.539Z,101065.33
2022-12-05T13:29:04.633Z,101056.63
2022-12-05T13:31:41.820Z,101057.49
2022-12-05T13:34:31.083Z,101054.48
2022-12-05T13:37:19.287Z,101051.16
2022-12-05T13:40:12.106Z,101050.41
2022-12-05T13:42:40.344Z,101040.70
2022-12-05T13:45:14.650Z,101044.36
2022-12-05T13:48:02.055Z,101053.20
2022-12-05T13:50:50.557Z,101054.20
2022-12-05T13:53:45.851Z,101050.73
2022-12-05T13:56:13.483Z,101050.92
2022-12-05T13:58:51.813Z,101047.24
2022-12-05T14:01:26.285Z,101044.90
2022-12-05T14:03:58.435Z,101041.17
2022-12-05T14:06:34.951Z,101033.21
2022-12-05T14:09:03.473Z,101033.97
2022-12-05T14:11:31.287Z,101033.87
2022-12-05T14:14:04.355Z,101034.62
2022-12-05T14:16:34.337Z,101037.38
2022-12-05T14:19:15.209Z,101036.67
2022-12-05T14:21:57.002Z,101036.04
2022-12-05T14:24:54.666Z,101033.48
2022-12-05T14:27:43.444Z,101025.85
2022-12-05T14:30:18.679Z,101017.41
2022-12-05T14:32:46.730Z,101016.92
2022-12-05T14:35:29.241Z,101018.55
2022-12-05T14:38:06.588Z,101013.35
2022-12-05T14:40:43.791Z,101016.91
2022-12-05T14:43:17.614Z,101012.85
2022-12-05T14:45:51.459Z,101012.02
2022-12-05T14:48:48.319Z,101014.38
2022-12-05T14:51:31.631Z,101009.74
2022-12-05T14:54:15.345Z,101000.02
2022-12-05T14:56:46.433Z,101000.17
2022-12-05T14:59:39.036Z,101008.37
2022-12-05T15:02:15.063Z,101007.13
2022-12-05T15:05:18.167Z,101000.95
2022-12-05T15:07:46.380Z,101001.27
2022-12-05T15:10:20.259Z,101001.66
2022-12-05T15:13:09.759Z,101002.75
2022-12-05T15:15:40.364Z,101002.96
2022-12-05T15:18:14.129Z,100999.11
2022-12-05T15:21:13.734Z,100994.40
2022-12-05T15:23:49.045Z,100994.41
2022-12-05T15:29:33.865Z,100985.80
2022-12-05T15:32:06.393Z,100978.63
2022-12-05T15:35:05.219Z,100982.21
2022-12-05T15:37:56.438Z,100984.61
2022-12-05T15:40:26.283Z,100983.48
2022-12-05T15:42:57.528Z,100986.91
2022-12-05T15:45:28.119Z,100982.61
2022-12-05T15:48:10.558Z,100980.45
2022-12-05T15:50:51.337Z,100978.05
2022-12-05T15:53:34.471Z,100980.21
2022-12-05T15:56:09.552Z,100975.34
2022-12-05T15:59:09.635Z,100977.57
2022-12-05T16:01:47.305Z,100976.44
2022-12-05T16:04:22.584Z,100976.02
2022-12-05T16:06:55.720Z,100971.00
2022-12-05T16:09:26.545Z,100972.02
2022-12-05T16:12:01.717Z,100973.88
2022-12-05T16:14:58.912Z,100973.89
2022-12-05T16:17:25.446Z,100970.55
2022-12-05T16:19:53.322Z,100970.81
2022-12-05T16:22:24.370Z,100966.31
2022-12-05T16:25:04.738Z,100962.59
2022-12-05T16:27:37.206Z,100963.02
2022-12-05T16:30:09.492Z,100957.77
2022-12-05T16:32:38.365Z,100960.85
2022-12-05T16:35:33.953Z,100962.42
2022-12-05T16:38:11.019Z,100963.98
2022-12-05T16:40:54.021Z,100959.46
2022-12-05T16:43:31.849Z,100961.18
2022-12-05T16:46:13.169Z,100955.50
2022-12-05T16:48:44.545Z,100952.26
2022-12-05T16:51:21.952Z,100949.40
2022-12-05T16:53:51.928Z,100944.02
2022-12-05T16:56:29.707Z,100941.67
2022-12-05T16:58:58.307Z,100940.87
2022-12-05T17:01:27.376Z,100941.25
2022-12-05T17:03:56.655Z,100938.63
2022-12-05T17:06:26.197Z,100938.19
2022-12-05T17:08:55.174Z,100938.75
2022-12-05T17:11:28.235Z,100937.17
2022-12-05T17:13:57.503Z,100939.58
2022-12-05T17:16:26.694Z,100937.97
2022-12-05T17:18:54.770Z,100937.86
2022-12-05T17:21:30.768Z,100942.33
2022-12-05T17:23:58.489Z,100944.54
2022-12-05T17:26:26.533Z,100946.59
2022-12-05T17:28:54.253Z,100948.02
2022-12-05T17:31:24.082Z,100945.76
2022-12-05T17:33:54.004Z,100943.48
2022-12-05T17:36:21.812Z,100938.17
2022-12-05T17:38:50.132Z,100935.51
2022-12-05T17:41:23.133Z,100936.58
2022-12-05T17:43:51.649Z,100936.02
2022-12-05T17:46:23.490Z,100933.15
2022-12-05T17:48:51.859Z,100928.80
2022-12-05T17:51:20.640Z,100923.58
2022-12-05T17:53:48.949Z,100922.60
2022-12-05T17:56:16.704Z,100919.76
2022-12-05T17:58:44.593Z,100917.88
2022-12-05T18:01:19.656Z,100918.60
2022-12-05T18:03:48.560Z,100920.42
2022-12-05T18:06:17.547Z,100918.13
2022-12-05T18:08:45.372Z,100918.50
2022-12-05T18:11:15.168Z,100919.35
2022-12-05T18:13:42.972Z,100917.98
2022-12-05T18:16:11.288Z,100920.56
2022-12-05T18:18:39.484Z,100920.71
2022-12-05T18:21:12.664Z,100916.40
2022-12-05T18:23:41.575Z,100921.81
2022-12-05T18:26:10.824Z,100919.63
2022-12-05T18:28:39.752Z,100920.16
2022-12-05T18:31:08.776Z,100927.39
2022-12-05T18:33:36.562Z,100922.73
2022-12-05T18:36:09.025Z,100918.70
2022-12-05T18:38:38.402Z,100919.23
2022-12-05T18:41:07.141Z,100920.62
2022-12-05T18:43:35.579Z,100920.48
2022-12-05T18:46:04.625Z,100920.20
2022-12-05T18:48:46.010Z,100923.52
2022-12-05T18:51:16.825Z,100922.98
2022-12-05T18:53:51.814Z,100925.14
2022-12-05T18:56:24.594Z,100919.88
2022-12-05T18:59:17.659Z,100920.88
2022-12-05T19:01:46.428Z,100921.37
2022-12-05T19:04:19.887Z,100918.35
2022-12-05T19:06:59.058Z,100919.78
2022-12-05T19:09:29.669Z,100916.66
2022-12-05T19:11:59.573Z,100918.09
2022-12-05T19:14:30.551Z,100913.60
2022-12-05T19:17:00.376Z,100914.84
2022-12-05T19:19:29.341Z,100913.36
2022-12-05T19:21:58.963Z,100910.90
2022-12-05T19:24:26.871Z,100910.92
2022-12-05T19:26:54.855Z,100913.65
2022-12-05T19:29:22.631Z,100913.36
2022-12-05T19:31:50.360Z,100914.23
2022-12-05T19:34:18.091Z,100907.38
2022-12-05T19:36:48.492Z,100909.41
2022-12-05T19:39:20.639Z,100908.77
2022-12-05T19:41:49.097Z,100911.80
2022-12-05T19:44:17.627Z,100905.05
2022-12-05T19:46:45.481Z,100897.02
2022-12-05T19:49:16.444Z,100898.20
2022-12-05T19:51:44.759Z,100901.95
2022-12-05T19:54:13.923Z,100895.58
2022-12-05T19:56:41.619Z,100891.39
2022-12-05T19:59:13.072Z,100889.41
2022-12-05T20:01:41.281Z,100882.99
2022-12-05T20:04:15.280Z,100883.88
2022-12-05T20:06:45.511Z,100881.15
2022-12-05T20:09:15.219Z,100884.70
2022-12-05T20:11:49.503Z,100883.52
2022-12-05T20:14:23.083Z,100881.00
2022-12-05T20:16:52.101Z,100882.04
2022-12-05T20:19:19.995Z,100880.23
2022-12-05T20:21:47.689Z,100873.71
2022-12-05T20:24:15.399Z,100873.25
2022-12-05T20:26:44.668Z,100868.48
2022-12-05T20:29:12.800Z,100866.48
2022-12-05T20:31:42.567Z,100861.46
2022-12-05T20:34:13.580Z,100859.17
2022-12-05T20:36:42.436Z,100860.72
2022-12-05T20:39:15.720Z,100855.00
2022-12-05T20:41:43.891Z,100853.20
2022-12-05T20:44:14.986Z,100855.77
2022-12-05T20:46:43.175Z,100855.27
2022-12-05T20:49:14.121Z,100856.05
2022-12-05T20:51:43.914Z,100853.81
2022-12-05T20:54:13.266Z,100851.62
2022-12-05T20:56:41.417Z,100850.44
2022-12-05T20:59:12.028Z,100849.43
2022-12-05T21:01:39.927Z,100844.89
2022-12-05T21:04:08.562Z,100846.59
2022-12-05T21:06:40.363Z,100841.73
2022-12-05T21:09:26.796Z,100844.11
2022-12-05T21:11:55.667Z,100841.03
2022-12-05T21:14:24.067Z,100841.92
2022-12-05T21:16:53.317Z,100835.90
2022-12-05T21:19:21.496Z,100838.48
2022-12-05T21:21:49.358Z,100832.77
2022-12-05T21:24:17.061Z,100834.45
2022-12-05T21:26:45.308Z,100836.70
2022-12-05T21:29:13.250Z,100837.96
2022-12-05T21:31:42.618Z,100835.05
2022-12-05T21:34:20.355Z,100833.84
2022-12-05T21:36:48.140Z,100832.53
2022-12-05T21:39:16.469Z,100836.57
2022-12-05T21:41:44.157Z,100836.71
2022-12-05T21:44:12.020Z,100835.66
2022-12-05T21:46:39.735Z,100843.20
2022-12-05T21:49:07.638Z,100841.97
2022-12-05T21:51:35.357Z,100836.63
2022-12-05T21:54:03.694Z,100836.64
2022-12-05T21:56:31.467Z,100834.81
2022-12-05T21:58:59.154Z,100829.85
